Terminal Aerodrome Forecast
Issued by NWS Charleston, WV

Current Version | Previous Version | Graphics & Text | Print | Product List | Glossary Off
Versions: 1 2 3 4 5 6 7 8 9 10 11 12 13 14 15 16 17 18 19 20 21 22

000
FTUS41 KRLX 222300 RRA
TAFCRW
TAF
KCRW 222344Z 2300/2324 16004KT P6SM SCT090
     FM231400 15004KT P6SM BKN060
     FM231700 14007KT P6SM BKN090
     FM232000 15010G19KT P6SM BKN070
     FM232200 15010G19KT 6SM -SHRA OVC060
     FM232300 14009G16KT 5SM -SHRA BR OVC050=

USA.gov is the U.S. government's official web portal to all federal, state and local government web resources and services.